Hovedside
METAR-TAF:

METAR-TAF

Lufthavner :

Uppsala, Sverige

breddegrad: 59-53N, lengdegrad: 017-36E, høyde over havet: 21 m

Gjeldene værobservasjon

Denne rapporten ble laget for 23 minutter siden, klokken 11:50 UTC
Vind 3 kt fra skiftende retning
Temperatur 24°C
Luftfuktighet 65%
Trykk 1011 hPa
Sikt 10 km eller mer

METAR: ESCM 231150Z AUTO VRB03KT 9999 FEW031/// 24/17 Q1011

Tid: 14:13 (12:13 UTC)


TAF: fraværende

Værobservasjoner og værvarsel for over 4000 flyplasser (METAR- og TAF-rapporter).

Tilgjengelige stasjoner er representert av de røde og gule prikkene på kartet.

Hold musepekeren over prikken for å se navnet på stasjonen.

Klikk så for å se værobservasjoner og -varsler.

For å forandre kartet kan du klikke på den grønne knappen med svart kryss for å zoome inn, på den grønne knappen med strek for å zoome ut, eller på de grønne pilene for å se tilstøtende kart.


METAR-TAF: